Time;durP1;ratioP1;P1;durP2;ratioP2;P2;SDS_P1;SDS_P2;PMS_P1;PMS_P2;Temp;Humidity;BMP_temperature;BMP_pressure;BME280_temperature;BME280_humidity;BME280_pressure;Samples;Min_cycle;Max_cycle;Signal;HPM_P1;HPM_P2
2021/12/28 00:01:08;;;;;;;69.68;21.15;;;;;;;;;;5073842;28;20140;-77
2021/12/28 00:03:36;;;;;;;61.58;19.23;;;;;;;;;;5076079;28;20056;-78
2021/12/28 00:06:03;;;;;;;59.95;19.25;;;;;;;;;;5078292;28;20079;-77
2021/12/28 00:08:29;;;;;;;65.22;19.27;;;;;;;;;;5082752;28;20134;-78
2021/12/28 00:10:56;;;;;;;57.05;18.40;;;;;;;;;;5071363;28;20080;-77
2021/12/28 00:13:23;;;;;;;54.33;18.63;;;;;;;;;;5066783;28;20084;-77
2021/12/28 00:18:25;;;;;;;50.28;16.20;;;;;;;;;;5082069;28;20574;-77
2021/12/28 00:20:56;;;;;;;53.47;17.50;;;;;;;;;;5065875;28;20079;-77
2021/12/28 00:23:25;;;;;;;54.22;16.10;;;;;;;;;;5066626;28;20088;-77
2021/12/28 00:25:52;;;;;;;45.70;15.75;;;;;;;;;;5083623;28;20056;-77
2021/12/28 00:28:19;;;;;;;47.17;16.20;;;;;;;;;;5070216;28;20081;-78
2021/12/28 00:30:47;;;;;;;45.17;15.75;;;;;;;;;;5077499;28;20592;-77
2021/12/28 00:33:14;;;;;;;44.45;15.82;;;;;;;;;;5083744;28;20049;-77
2021/12/28 00:35:41;;;;;;;44.10;14.77;;;;;;;;;;5078384;28;20053;-78
2021/12/28 00:38:09;;;;;;;44.58;15.20;;;;;;;;;;5070993;28;20057;-77
2021/12/28 00:40:37;;;;;;;45.00;14.30;;;;;;;;;;5083589;28;20620;-77
2021/12/28 00:43:04;;;;;;;50.63;14.65;;;;;;;;;;5087885;28;20141;-78
2021/12/28 00:45:30;;;;;;;46.30;14.48;;;;;;;;;;5080123;28;20080;-76
2021/12/28 00:47:57;;;;;;;36.55;15.00;;;;;;;;;;5081733;28;20489;-77
2021/12/28 00:50:24;;;;;;;40.40;14.02;;;;;;;;;;5079627;28;20508;-78
2021/12/28 00:52:50;;;;;;;46.80;14.50;;;;;;;;;;5088000;28;20056;-77
2021/12/28 00:55:18;;;;;;;41.42;13.20;;;;;;;;;;5085408;28;20076;-77
2021/12/28 00:57:44;;;;;;;44.70;13.68;;;;;;;;;;5086672;28;20148;-77
2021/12/28 01:00:12;;;;;;;38.22;12.60;;;;;;;;;;5083262;28;20072;-77
2021/12/28 01:02:39;;;;;;;39.70;12.60;;;;;;;;;;5084176;28;20079;-77
2021/12/28 01:05:06;;;;;;;33.20;12.07;;;;;;;;;;5073876;28;20057;-77
2021/12/28 01:07:33;;;;;;;46.50;11.82;;;;;;;;;;5084643;28;20134;-77
2021/12/28 01:09:59;;;;;;;38.80;11.73;;;;;;;;;;5086281;28;20107;-76
2021/12/28 01:12:26;;;;;;;32.75;10.63;;;;;;;;;;5069772;28;20053;-76
2021/12/28 01:14:52;;;;;;;36.88;10.40;;;;;;;;;;5078168;28;20052;-77
2021/12/28 01:17:18;;;;;;;37.38;10.75;;;;;;;;;;5083064;28;20056;-77
2021/12/28 01:19:45;;;;;;;38.05;10.88;;;;;;;;;;5086622;28;20514;-77
2021/12/28 01:22:11;;;;;;;34.30;11.05;;;;;;;;;;5088905;28;20048;-77
2021/12/28 01:24:38;;;;;;;37.72;10.13;;;;;;;;;;5075979;28;20123;-77
2021/12/28 01:27:04;;;;;;;37.42;10.00;;;;;;;;;;5089052;28;20080;-77
2021/12/28 01:29:30;;;;;;;43.13;10.57;;;;;;;;;;5088280;28;20083;-77
2021/12/28 01:31:57;;;;;;;33.80;10.15;;;;;;;;;;5076188;28;20543;-77
2021/12/28 01:34:23;;;;;;;36.25;10.10;;;;;;;;;;5076501;28;20143;-77
2021/12/28 01:36:49;;;;;;;41.67;10.10;;;;;;;;;;5087410;28;20083;-77
2021/12/28 01:39:16;;;;;;;40.88;10.60;;;;;;;;;;5076186;28;20142;-78
2021/12/28 01:41:43;;;;;;;37.80;9.95;;;;;;;;;;5069653;28;20697;-77
2021/12/28 01:44:10;;;;;;;35.35;10.18;;;;;;;;;;5085401;28;20103;-77
2021/12/28 01:46:37;;;;;;;34.83;9.43;;;;;;;;;;5094905;28;20048;-77
2021/12/28 01:49:04;;;;;;;35.40;9.30;;;;;;;;;;5088853;28;20055;-77
2021/12/28 01:51:32;;;;;;;38.17;9.45;;;;;;;;;;5084018;28;20538;-77
2021/12/28 01:53:59;;;;;;;31.65;8.68;;;;;;;;;;5085796;28;20110;-77
2021/12/28 01:56:28;;;;;;;34.92;9.27;;;;;;;;;;5085881;28;20582;-77
2021/12/28 01:58:55;;;;;;;33.47;8.98;;;;;;;;;;5079212;28;20180;-77
2021/12/28 02:01:22;;;;;;;33.70;8.90;;;;;;;;;;5081580;28;20133;-78
2021/12/28 02:03:48;;;;;;;27.77;8.80;;;;;;;;;;5077342;28;20052;-76
2021/12/28 02:06:16;;;;;;;31.23;8.48;;;;;;;;;;5073360;28;20052;-77
2021/12/28 02:08:42;;;;;;;30.58;8.52;;;;;;;;;;5086231;28;20048;-77
2021/12/28 02:11:10;;;;;;;29.75;7.57;;;;;;;;;;5079155;28;20110;-77
2021/12/28 02:13:37;;;;;;;35.47;7.82;;;;;;;;;;5077069;28;20048;-78
2021/12/28 02:16:04;;;;;;;26.88;7.90;;;;;;;;;;5089058;28;20110;-77
2021/12/28 02:18:31;;;;;;;23.42;7.50;;;;;;;;;;5088734;28;20110;-77
2021/12/28 02:20:59;;;;;;;30.80;8.23;;;;;;;;;;5077810;28;20503;-77
2021/12/28 02:23:26;;;;;;;28.90;7.30;;;;;;;;;;5088706;28;20538;-77
2021/12/28 02:25:52;;;;;;;25.92;6.97;;;;;;;;;;5079691;28;20085;-77
2021/12/28 02:28:18;;;;;;;35.15;8.05;;;;;;;;;;5075670;28;20048;-78
2021/12/28 02:30:47;;;;;;;33.20;8.07;;;;;;;;;;5074496;28;20083;-77
2021/12/28 02:33:14;;;;;;;30.90;7.47;;;;;;;;;;5081763;28;20589;-77
2021/12/28 02:35:40;;;;;;;34.95;7.18;;;;;;;;;;5084764;28;20060;-77
2021/12/28 02:38:08;;;;;;;39.53;7.75;;;;;;;;;;5081467;28;20076;-78
2021/12/28 02:40:35;;;;;;;28.50;7.22;;;;;;;;;;5067100;28;20112;-76
2021/12/28 02:43:03;;;;;;;28.90;7.07;;;;;;;;;;5078043;28;20126;-77
2021/12/28 02:45:31;;;;;;;26.83;6.80;;;;;;;;;;5079960;28;20136;-77
2021/12/28 02:47:58;;;;;;;35.47;7.50;;;;;;;;;;5080819;28;20073;-77
2021/12/28 02:50:25;;;;;;;32.20;7.35;;;;;;;;;;5072267;28;20530;-77
2021/12/28 02:52:51;;;;;;;36.40;6.93;;;;;;;;;;5079926;28;20516;-77
2021/12/28 02:55:19;;;;;;;38.20;7.70;;;;;;;;;;5075822;28;20084;-77
2021/12/28 02:57:46;;;;;;;34.42;7.72;;;;;;;;;;5079918;28;20140;-77
2021/12/28 03:00:13;;;;;;;29.17;7.10;;;;;;;;;;5079545;28;20060;-77
2021/12/28 03:02:39;;;;;;;34.67;6.45;;;;;;;;;;5079818;28;20122;-77
2021/12/28 03:05:06;;;;;;;26.58;6.35;;;;;;;;;;5074381;28;20131;-76
2021/12/28 03:07:33;;;;;;;24.38;6.68;;;;;;;;;;5070292;28;20107;-78
2021/12/28 03:09:59;;;;;;;29.50;7.75;;;;;;;;;;5071119;28;20110;-77
2021/12/28 03:12:25;;;;;;;29.50;7.25;;;;;;;;;;5074112;28;20088;-77
2021/12/28 03:14:52;;;;;;;27.52;6.93;;;;;;;;;;5076728;28;20134;-77
2021/12/28 03:17:20;;;;;;;25.80;5.82;;;;;;;;;;5072106;28;20474;-77
2021/12/28 03:19:47;;;;;;;37.72;7.80;;;;;;;;;;5082292;28;20844;-77
2021/12/28 03:22:13;;;;;;;36.05;7.03;;;;;;;;;;5082308;28;20080;-78
2021/12/28 03:24:39;;;;;;;33.35;7.35;;;;;;;;;;5070423;28;20581;-77
2021/12/28 03:27:06;;;;;;;39.90;6.97;;;;;;;;;;5085964;28;20079;-77
2021/12/28 03:29:32;;;;;;;36.97;7.97;;;;;;;;;;5084075;28;20162;-77
2021/12/28 03:31:58;;;;;;;28.50;7.68;;;;;;;;;;5073980;28;20102;-77
2021/12/28 03:34:25;;;;;;;34.05;6.93;;;;;;;;;;5080497;28;20052;-77
2021/12/28 03:36:51;;;;;;;29.65;6.25;;;;;;;;;;5082176;28;20085;-77
2021/12/28 03:39:18;;;;;;;28.13;6.53;;;;;;;;;;5076906;28;20068;-77
2021/12/28 03:41:45;;;;;;;30.27;6.90;;;;;;;;;;5079782;28;20053;-77
2021/12/28 03:44:11;;;;;;;40.85;7.25;;;;;;;;;;5076178;28;20080;-77
2021/12/28 03:46:38;;;;;;;33.83;6.78;;;;;;;;;;5085978;28;20134;-77
2021/12/28 03:49:04;;;;;;;33.10;6.25;;;;;;;;;;5077966;28;20103;-77
2021/12/28 03:51:30;;;;;;;21.80;5.95;;;;;;;;;;5073781;28;20209;-77
2021/12/28 03:53:57;;;;;;;33.30;5.93;;;;;;;;;;5069279;28;20084;-78
2021/12/28 03:56:23;;;;;;;23.40;6.03;;;;;;;;;;5080100;28;20103;-78
2021/12/28 03:58:51;;;;;;;32.45;6.57;;;;;;;;;;5069317;28;20080;-77
2021/12/28 04:01:19;;;;;;;24.40;6.30;;;;;;;;;;5075033;28;20297;-77
2021/12/28 04:03:46;;;;;;;33.92;6.38;;;;;;;;;;5083235;28;20588;-77
2021/12/28 04:06:12;;;;;;;27.08;5.63;;;;;;;;;;5075235;28;20080;-77
2021/12/28 04:08:41;;;;;;;29.67;6.70;;;;;;;;;;5068606;28;20083;-77
2021/12/28 04:13:48;;;;;;;24.75;5.25;;;;;;;;;;5068396;28;20052;-77
2021/12/28 04:16:15;;;;;;;24.50;5.20;;;;;;;;;;5086301;28;20048;-77
2021/12/28 04:18:41;;;;;;;28.85;5.40;;;;;;;;;;5077711;28;20057;-77
2021/12/28 04:21:08;;;;;;;27.95;5.07;;;;;;;;;;5074969;28;20057;-77
2021/12/28 04:23:35;;;;;;;23.05;5.22;;;;;;;;;;5069810;28;20147;-77
2021/12/28 04:26:02;;;;;;;29.73;5.43;;;;;;;;;;5079226;28;20080;-78
2021/12/28 04:28:28;;;;;;;32.25;6.80;;;;;;;;;;5078275;28;20516;-77
2021/12/28 04:30:55;;;;;;;25.17;6.55;;;;;;;;;;5086398;28;20574;-77
2021/12/28 04:33:21;;;;;;;23.38;5.88;;;;;;;;;;5081886;28;20502;-77
2021/12/28 04:35:48;;;;;;;21.80;5.70;;;;;;;;;;5072785;28;20504;-77
2021/12/28 04:38:14;;;;;;;20.15;4.90;;;;;;;;;;5081789;28;20148;-77
2021/12/28 04:40:40;;;;;;;28.77;5.35;;;;;;;;;;5084068;28;20506;-76
2021/12/28 04:43:07;;;;;;;20.55;4.80;;;;;;;;;;5079601;28;20474;-77
2021/12/28 04:45:36;;;;;;;24.10;4.88;;;;;;;;;;5080646;28;20439;-77
2021/12/28 04:48:04;;;;;;;25.45;5.45;;;;;;;;;;5079014;28;20056;-77
2021/12/28 04:50:37;;;;;;;27.23;5.90;;;;;;;;;;5078733;28;20072;-77
2021/12/28 04:53:08;;;;;;;24.40;5.18;;;;;;;;;;5080998;28;20084;-78
2021/12/28 04:55:35;;;;;;;21.17;5.25;;;;;;;;;;5074178;28;20057;-77
2021/12/28 04:58:02;;;;;;;33.83;7.07;;;;;;;;;;5078349;28;20102;-78
2021/12/28 05:00:28;;;;;;;30.65;5.70;;;;;;;;;;5078406;28;20500;-77
2021/12/28 05:02:54;;;;;;;34.58;5.00;;;;;;;;;;5081869;28;20057;-78
2021/12/28 05:05:21;;;;;;;28.95;4.90;;;;;;;;;;5070747;28;20585;-77
2021/12/28 05:07:47;;;;;;;24.00;4.40;;;;;;;;;;5078873;28;20110;-77
2021/12/28 05:10:13;;;;;;;27.38;4.72;;;;;;;;;;5068060;28;20516;-77
2021/12/28 05:12:40;;;;;;;25.85;5.25;;;;;;;;;;5069667;28;20490;-77
2021/12/28 05:15:07;;;;;;;18.40;4.47;;;;;;;;;;5082207;28;20112;-77
2021/12/28 05:17:34;;;;;;;22.92;4.47;;;;;;;;;;5074737;28;20536;-78
2021/12/28 05:20:00;;;;;;;26.00;4.43;;;;;;;;;;5079719;28;20088;-78
2021/12/28 05:22:26;;;;;;;26.08;4.40;;;;;;;;;;5073918;28;20126;-78
2021/12/28 05:24:53;;;;;;;24.48;5.05;;;;;;;;;;5076679;28;20053;-77
2021/12/28 05:27:19;;;;;;;29.15;4.70;;;;;;;;;;5084908;28;20060;-78
2021/12/28 05:29:45;;;;;;;31.23;4.40;;;;;;;;;;5083104;28;20057;-78
2021/12/28 05:32:12;;;;;;;17.48;4.43;;;;;;;;;;5078247;28;20519;-78
2021/12/28 05:34:38;;;;;;;25.00;4.47;;;;;;;;;;5075824;28;20059;-78
2021/12/28 05:37:06;;;;;;;29.65;4.40;;;;;;;;;;5089670;28;20049;-78
2021/12/28 05:39:32;;;;;;;25.13;4.38;;;;;;;;;;5079368;28;20144;-77
2021/12/28 05:41:58;;;;;;;22.23;4.70;;;;;;;;;;5088983;28;20614;-79
2021/12/28 05:44:25;;;;;;;20.38;4.53;;;;;;;;;;5079759;28;20584;-78
2021/12/28 05:46:51;;;;;;;18.30;3.97;;;;;;;;;;5088404;28;20563;-78
2021/12/28 05:49:18;;;;;;;19.17;4.72;;;;;;;;;;5079180;28;20088;-77
2021/12/28 05:51:45;;;;;;;20.75;3.80;;;;;;;;;;5069825;28;20063;-77
2021/12/28 05:54:12;;;;;;;27.33;4.97;;;;;;;;;;5083363;28;20052;-78
2021/12/28 05:56:39;;;;;;;22.48;4.40;;;;;;;;;;5086935;28;20577;-78
2021/12/28 05:59:05;;;;;;;23.08;4.63;;;;;;;;;;5084373;28;20148;-78
2021/12/28 06:01:31;;;;;;;20.65;4.22;;;;;;;;;;5080686;28;20636;-78
2021/12/28 06:03:58;;;;;;;20.35;4.75;;;;;;;;;;5082375;28;20057;-78
2021/12/28 06:06:24;;;;;;;23.70;4.43;;;;;;;;;;5082233;28;20562;-78
2021/12/28 06:08:52;;;;;;;23.40;4.60;;;;;;;;;;5080224;28;20060;-78
2021/12/28 06:11:19;;;;;;;21.73;4.32;;;;;;;;;;5082861;28;20130;-78
2021/12/28 06:13:45;;;;;;;21.40;3.63;;;;;;;;;;5077953;28;20057;-77
2021/12/28 06:16:12;;;;;;;20.85;4.30;;;;;;;;;;5074779;28;20053;-78
2021/12/28 06:18:39;;;;;;;23.38;4.50;;;;;;;;;;5083583;28;20052;-78
2021/12/28 06:21:05;;;;;;;21.10;4.25;;;;;;;;;;5087369;28;20588;-77
2021/12/28 06:23:32;;;;;;;14.07;3.60;;;;;;;;;;5074393;28;20135;-78
2021/12/28 06:25:59;;;;;;;20.05;3.85;;;;;;;;;;5087339;28;20088;-78
2021/12/28 06:28:25;;;;;;;21.92;3.55;;;;;;;;;;5072233;28;20511;-77
2021/12/28 06:30:53;;;;;;;25.45;4.32;;;;;;;;;;5079264;28;20527;-77
2021/12/28 06:33:23;;;;;;;19.30;3.50;;;;;;;;;;5079645;28;20052;-78
2021/12/28 06:35:50;;;;;;;17.60;3.58;;;;;;;;;;5079599;28;20076;-77
2021/12/28 06:38:17;;;;;;;17.55;3.60;;;;;;;;;;5087348;28;20467;-77
2021/12/28 06:40:43;;;;;;;18.80;3.78;;;;;;;;;;5077846;28;20156;-78
2021/12/28 06:43:10;;;;;;;19.90;3.75;;;;;;;;;;5075850;28;20114;-78
2021/12/28 06:45:36;;;;;;;13.40;3.60;;;;;;;;;;5083541;28;20739;-78
2021/12/28 06:48:03;;;;;;;19.50;3.22;;;;;;;;;;5080838;28;20053;-77
2021/12/28 06:50:30;;;;;;;21.15;3.55;;;;;;;;;;5079865;28;20532;-77
2021/12/28 06:52:56;;;;;;;17.02;3.22;;;;;;;;;;5077787;28;20139;-78
2021/12/28 06:55:22;;;;;;;22.23;3.30;;;;;;;;;;5081006;28;20084;-77
2021/12/28 06:57:49;;;;;;;16.90;3.15;;;;;;;;;;5068929;28;20134;-78
2021/12/28 07:00:20;;;;;;;;;;;;;;;;;;5082591;28;20064;-78
2021/12/28 07:02:46;;;;;;;15.50;3.13;;;;;;;;;;5086083;28;47058;-78
2021/12/28 07:05:13;;;;;;;16.80;3.30;;;;;;;;;;5075184;28;20434;-78
2021/12/28 07:07:40;;;;;;;18.25;3.67;;;;;;;;;;5076522;28;20048;-78
2021/12/28 07:10:07;;;;;;;12.93;3.67;;;;;;;;;;5080793;28;20395;-78
2021/12/28 07:12:34;;;;;;;19.45;3.28;;;;;;;;;;5078338;28;20111;-78
2021/12/28 07:15:00;;;;;;;12.02;2.55;;;;;;;;;;5078646;28;20131;-78
2021/12/28 07:17:27;;;;;;;16.95;3.42;;;;;;;;;;5078976;28;20049;-78
2021/12/28 07:19:53;;;;;;;14.05;3.65;;;;;;;;;;5073250;28;20587;-78
2021/12/28 07:22:20;;;;;;;16.45;4.00;;;;;;;;;;5080488;28;20607;-78
2021/12/28 07:24:46;;;;;;;18.48;3.17;;;;;;;;;;5070218;28;20060;-78
2021/12/28 07:27:14;;;;;;;14.93;2.97;;;;;;;;;;5080598;28;20167;-78
2021/12/28 07:29:40;;;;;;;9.55;2.85;;;;;;;;;;5078366;28;20400;-78
2021/12/28 07:32:08;;;;;;;17.20;3.30;;;;;;;;;;5075561;28;20879;-78
2021/12/28 07:34:36;;;;;;;19.33;3.45;;;;;;;;;;5085051;28;20076;-78
2021/12/28 07:37:02;;;;;;;12.63;3.03;;;;;;;;;;5087825;28;20106;-78
2021/12/28 07:39:28;;;;;;;13.68;3.45;;;;;;;;;;5088027;28;20055;-79
2021/12/28 07:41:55;;;;;;;14.05;3.38;;;;;;;;;;5086404;28;20074;-79
2021/12/28 07:44:22;;;;;;;17.05;4.22;;;;;;;;;;5082408;28;20053;-79
2021/12/28 07:46:48;;;;;;;16.20;4.93;;;;;;;;;;5077456;28;20083;-78
2021/12/28 07:49:15;;;;;;;17.50;3.72;;;;;;;;;;5073738;28;20118;-78
2021/12/28 07:51:42;;;;;;;13.25;3.60;;;;;;;;;;5082901;28;20608;-77
2021/12/28 07:54:08;;;;;;;18.05;3.47;;;;;;;;;;5078785;28;20053;-77
2021/12/28 07:56:35;;;;;;;18.92;3.35;;;;;;;;;;5076353;28;20135;-77
2021/12/28 07:59:01;;;;;;;20.85;4.32;;;;;;;;;;5081451;28;20115;-76
2021/12/28 08:01:27;;;;;;;18.52;4.30;;;;;;;;;;5078064;28;20128;-77
2021/12/28 08:03:54;;;;;;;19.13;4.22;;;;;;;;;;5073879;28;20570;-77
2021/12/28 08:06:20;;;;;;;24.63;4.32;;;;;;;;;;5085028;28;20076;-78
2021/12/28 08:08:47;;;;;;;18.45;4.47;;;;;;;;;;5080150;28;20082;-77
2021/12/28 08:11:13;;;;;;;17.25;4.60;;;;;;;;;;5074313;28;20102;-78
2021/12/28 08:13:39;;;;;;;24.10;4.43;;;;;;;;;;5086592;28;20107;-78
2021/12/28 08:16:06;;;;;;;17.55;4.75;;;;;;;;;;5076663;28;20094;-78
2021/12/28 08:18:32;;;;;;;19.38;5.25;;;;;;;;;;5082458;28;20541;-77
2021/12/28 08:20:59;;;;;;;20.20;5.45;;;;;;;;;;5080850;28;20114;-79
2021/12/28 08:23:25;;;;;;;21.77;4.72;;;;;;;;;;5076027;28;20158;-78
2021/12/28 08:25:51;;;;;;;30.50;5.80;;;;;;;;;;5071653;28;20048;-78
2021/12/28 08:28:18;;;;;;;19.88;5.65;;;;;;;;;;5072283;28;20134;-78
2021/12/28 08:30:44;;;;;;;17.17;5.05;;;;;;;;;;5077182;28;20057;-78
2021/12/28 08:33:11;;;;;;;23.92;5.82;;;;;;;;;;5070253;28;20537;-77
2021/12/28 08:35:39;;;;;;;21.88;5.50;;;;;;;;;;5080267;28;20534;-78
2021/12/28 08:38:09;;;;;;;17.52;5.93;;;;;;;;;;5084702;28;20524;-78
2021/12/28 08:40:37;;;;;;;22.35;6.07;;;;;;;;;;5072774;28;20123;-78
2021/12/28 08:43:03;;;;;;;15.18;6.35;;;;;;;;;;5074616;28;20053;-77
2021/12/28 08:45:29;;;;;;;19.45;5.90;;;;;;;;;;5082664;28;20088;-77
2021/12/28 08:47:56;;;;;;;24.80;6.55;;;;;;;;;;5084909;28;20052;-79
2021/12/28 08:50:23;;;;;;;20.23;5.85;;;;;;;;;;5083207;28;20084;-77
2021/12/28 08:52:50;;;;;;;18.05;5.93;;;;;;;;;;5070374;28;20056;-78
2021/12/28 08:55:18;;;;;;;17.35;5.05;;;;;;;;;;5070418;28;20418;-78
2021/12/28 08:57:44;;;;;;;18.02;5.85;;;;;;;;;;5074964;28;20134;-77
2021/12/28 09:00:13;;;;;;;18.42;5.65;;;;;;;;;;5081861;28;20048;-78
2021/12/28 09:02:39;;;;;;;17.55;5.82;;;;;;;;;;5079871;28;20525;-77
2021/12/28 09:05:06;;;;;;;21.63;6.85;;;;;;;;;;5091390;28;20147;-77
2021/12/28 09:07:32;;;;;;;17.40;5.53;;;;;;;;;;5088262;28;20396;-77
2021/12/28 09:09:59;;;;;;;18.42;5.57;;;;;;;;;;5088676;28;20092;-77
2021/12/28 09:12:26;;;;;;;14.60;5.30;;;;;;;;;;5081492;28;20127;-78
2021/12/28 09:14:53;;;;;;;19.33;5.70;;;;;;;;;;5076957;28;20041;-77
2021/12/28 09:17:19;;;;;;;17.38;6.18;;;;;;;;;;5083911;28;20139;-76
2021/12/28 09:19:46;;;;;;;14.63;5.75;;;;;;;;;;5079072;28;20080;-76
2021/12/28 09:22:12;;;;;;;16.45;6.22;;;;;;;;;;5087046;28;20115;-76
2021/12/28 09:24:38;;;;;;;14.70;5.53;;;;;;;;;;5078593;28;20131;-78
2021/12/28 09:27:11;;;;;;;19.25;6.57;;;;;;;;;;5078578;27;20559;-78
2021/12/28 09:29:42;;;;;;;24.98;6.95;;;;;;;;;;5088381;28;20573;-78
2021/12/28 09:32:15;;;;;;;19.67;6.68;;;;;;;;;;5085711;28;20057;-75
2021/12/28 09:34:42;;;;;;;22.35;6.45;;;;;;;;;;5084721;28;20052;-76
2021/12/28 09:37:08;;;;;;;19.42;7.28;;;;;;;;;;5075677;28;20747;-79
2021/12/28 09:39:35;;;;;;;21.73;6.43;;;;;;;;;;5073737;28;20059;-77
2021/12/28 09:42:03;;;;;;;26.73;6.97;;;;;;;;;;5083415;28;20044;-78
2021/12/28 09:44:30;;;;;;;19.52;7.55;;;;;;;;;;5085792;28;20556;-78
2021/12/28 09:46:58;;;;;;;18.33;6.82;;;;;;;;;;5089295;28;20061;-77
2021/12/28 09:49:25;;;;;;;18.48;6.38;;;;;;;;;;5076327;28;20056;-78
2021/12/28 09:51:52;;;;;;;16.65;6.05;;;;;;;;;;5074121;28;20645;-77
2021/12/28 09:54:18;;;;;;;18.33;6.72;;;;;;;;;;5072558;28;20076;-77
2021/12/28 09:56:45;;;;;;;91.18;33.75;;;;;;;;;;5082111;28;20052;-77
2021/12/28 09:59:11;;;;;;;24.27;7.80;;;;;;;;;;5086937;28;20056;-77
2021/12/28 10:01:38;;;;;;;18.58;6.72;;;;;;;;;;5087849;28;20053;-77
2021/12/28 10:04:04;;;;;;;24.08;6.93;;;;;;;;;;5083218;28;20059;-77
2021/12/28 10:06:31;;;;;;;20.98;7.45;;;;;;;;;;5077508;28;20110;-77
2021/12/28 10:09:15;;;;;;;19.52;7.03;;;;;;;;;;5085549;28;20151;-77
2021/12/28 10:11:48;;;;;;;16.95;7.45;;;;;;;;;;5080162;28;20064;-77
2021/12/28 10:14:25;;;;;;;18.65;6.57;;;;;;;;;;5069303;28;20423;-77
2021/12/28 10:16:59;;;;;;;18.88;7.07;;;;;;;;;;5072550;28;20057;-77
2021/12/28 10:19:34;;;;;;;14.85;7.10;;;;;;;;;;5073090;28;20151;-77
2021/12/28 10:22:18;;;;;;;139.73;46.78;;;;;;;;;;5086599;28;20048;-77
2021/12/28 10:24:44;;;;;;;27.55;10.68;;;;;;;;;;5086854;28;20147;-78
2021/12/28 10:27:12;;;;;;;21.95;7.90;;;;;;;;;;5087843;28;20056;-78
2021/12/28 10:29:39;;;;;;;17.80;7.32;;;;;;;;;;5076396;28;20099;-77
2021/12/28 10:32:25;;;;;;;15.73;7.03;;;;;;;;;;5083476;28;20048;-78
2021/12/28 10:34:53;;;;;;;16.92;6.65;;;;;;;;;;5076841;28;20053;-77
2021/12/28 10:37:39;;;;;;;14.10;6.60;;;;;;;;;;5084506;28;20056;-78
2021/12/28 10:40:10;;;;;;;15.02;6.97;;;;;;;;;;5073693;28;20139;-78
2021/12/28 10:42:42;;;;;;;18.85;7.00;;;;;;;;;;5074206;28;20313;-77
2021/12/28 10:45:31;;;;;;;14.75;6.97;;;;;;;;;;5078034;28;20503;-77
2021/12/28 10:48:02;;;;;;;15.20;7.00;;;;;;;;;;5072918;28;20102;-77
2021/12/28 10:50:35;;;;;;;14.25;6.28;;;;;;;;;;5078044;28;20153;-77
2021/12/28 10:53:10;;;;;;;14.95;6.28;;;;;;;;;;5073356;28;20114;-79
2021/12/28 10:55:37;;;;;;;16.73;6.68;;;;;;;;;;5076765;28;20065;-78
2021/12/28 10:58:05;;;;;;;12.60;6.40;;;;;;;;;;5079866;28;20052;-77
2021/12/28 11:00:32;;;;;;;14.48;6.57;;;;;;;;;;5075627;28;20057;-77
2021/12/28 11:03:17;;;;;;;15.15;6.43;;;;;;;;;;5079021;28;20426;-83
2021/12/28 11:05:45;;;;;;;14.23;6.57;;;;;;;;;;5073388;28;20052;-77
2021/12/28 11:08:13;;;;;;;13.82;6.05;;;;;;;;;;5082959;28;20053;-77
2021/12/28 11:10:42;;;;;;;10.55;5.25;;;;;;;;;;5078978;28;20111;-77
2021/12/28 11:13:08;;;;;;;14.02;5.32;;;;;;;;;;5078997;28;20053;-77
2021/12/28 11:15:38;;;;;;;11.48;5.57;;;;;;;;;;5086470;28;20106;-77
2021/12/28 11:18:18;;;;;;;12.25;5.57;;;;;;;;;;5077630;28;20041;-77
2021/12/28 11:20:44;;;;;;;12.13;5.13;;;;;;;;;;5070188;28;20126;-77
2021/12/28 11:23:16;;;;;;;10.38;4.75;;;;;;;;;;5077033;28;20260;-77
2021/12/28 11:25:42;;;;;;;11.50;4.93;;;;;;;;;;5074704;28;20116;-78
2021/12/28 11:28:17;;;;;;;11.43;4.88;;;;;;;;;;5085238;28;20106;-77
2021/12/28 11:31:03;;;;;;;10.52;4.97;;;;;;;;;;5077379;28;20543;-77
2021/12/28 11:33:47;;;;;;;10.75;4.78;;;;;;;;;;5079567;28;20148;-77
2021/12/28 11:36:14;;;;;;;11.93;4.85;;;;;;;;;;5072288;28;20127;-77
2021/12/28 11:38:40;;;;;;;9.45;4.18;;;;;;;;;;5074056;28;20084;-77
2021/12/28 11:41:06;;;;;;;9.90;4.72;;;;;;;;;;5085518;28;20083;-77
2021/12/28 11:43:34;;;;;;;11.93;4.63;;;;;;;;;;5071335;28;20049;-77
2021/12/28 11:46:03;;;;;;;10.65;4.38;;;;;;;;;;5076853;28;20530;-77
2021/12/28 11:48:30;;;;;;;10.13;4.63;;;;;;;;;;5070298;28;20515;-77
2021/12/28 11:50:58;;;;;;;12.82;4.43;;;;;;;;;;5071126;28;20061;-77
2021/12/28 11:53:25;;;;;;;11.38;4.53;;;;;;;;;;5073146;28;20118;-77
2021/12/28 11:55:51;;;;;;;12.45;4.35;;;;;;;;;;5075232;28;20513;-77
2021/12/28 11:58:17;;;;;;;10.52;4.72;;;;;;;;;;5081085;28;20139;-76
2021/12/28 12:00:44;;;;;;;11.30;4.97;;;;;;;;;;5077560;28;20056;-76
2021/12/28 12:03:43;;;;;;;10.82;4.65;;;;;;;;;;5082592;28;20110;-78
2021/12/28 12:06:10;;;;;;;18.08;5.20;;;;;;;;;;5038059;28;20106;-76
2021/12/28 12:08:56;;;;;;;15.65;5.30;;;;;;;;;;5080239;28;20443;-76
2021/12/28 12:11:25;;;;;;;13.98;4.95;;;;;;;;;;5073765;28;20274;-76
2021/12/28 12:13:51;;;;;;;11.50;5.05;;;;;;;;;;5084986;28;20092;-77
2021/12/28 12:16:18;;;;;;;12.68;4.18;;;;;;;;;;5080241;28;20091;-77
2021/12/28 12:18:48;;;;;;;12.25;3.78;;;;;;;;;;5070428;28;20123;-77
2021/12/28 12:21:34;;;;;;;11.50;6.07;;;;;;;;;;5077031;28;20521;-77
2021/12/28 12:24:01;;;;;;;18.92;8.63;;;;;;;;;;5074737;28;20495;-76
2021/12/28 12:26:31;;;;;;;6.68;4.00;;;;;;;;;;5073572;28;20102;-76
2021/12/28 12:28:57;;;;;;;8.02;2.90;;;;;;;;;;5081047;28;20053;-77
2021/12/28 12:31:37;;;;;;;8.35;2.13;;;;;;;;;;5085439;28;20053;-77
2021/12/28 12:34:05;;;;;;;6.25;1.90;;;;;;;;;;5080806;28;20052;-77
2021/12/28 12:36:34;;;;;;;5.10;1.50;;;;;;;;;;5080523;28;20080;-76
2021/12/28 12:39:02;;;;;;;7.18;1.42;;;;;;;;;;5079685;28;20052;-77
2021/12/28 12:41:36;;;;;;;6.10;1.40;;;;;;;;;;5074716;28;20126;-78
2021/12/28 12:44:07;;;;;;;10.07;1.30;;;;;;;;;;5074170;28;20111;-78
2021/12/28 12:46:38;;;;;;;13.27;1.40;;;;;;;;;;5078343;28;20143;-76
2021/12/28 12:49:12;;;;;;;10.27;1.60;;;;;;;;;;5076080;28;20053;-76
2021/12/28 12:51:44;;;;;;;11.00;1.67;;;;;;;;;;5087432;28;20056;-77
2021/12/28 12:54:14;;;;;;;12.98;1.83;;;;;;;;;;5081755;28;20156;-77
2021/12/28 12:56:56;;;;;;;15.52;2.35;;;;;;;;;;5079755;28;20523;-77
2021/12/28 12:59:24;;;;;;;16.17;1.90;;;;;;;;;;5076753;28;20590;-77
2021/12/28 13:01:50;;;;;;;11.13;2.00;;;;;;;;;;5078277;28;20135;-76
2021/12/28 13:04:26;;;;;;;15.60;2.60;;;;;;;;;;5084518;28;20048;-77
2021/12/28 13:06:59;;;;;;;19.23;2.50;;;;;;;;;;5077521;28;20076;-77
2021/12/28 13:09:28;;;;;;;15.32;2.22;;;;;;;;;;5065600;28;20068;-77
2021/12/28 13:11:54;;;;;;;15.18;2.67;;;;;;;;;;5073869;28;20479;-77
2021/12/28 13:14:20;;;;;;;31.83;4.82;;;;;;;;;;5081647;28;20133;-77
2021/12/28 13:16:56;;;;;;;17.85;2.38;;;;;;;;;;5085572;28;20068;-76
2021/12/28 13:19:23;;;;;;;22.92;4.22;;;;;;;;;;5081143;28;20152;-78
2021/12/28 13:22:01;;;;;;;26.13;4.07;;;;;;;;;;5079810;28;20106;-78
2021/12/28 13:24:28;;;;;;;23.92;4.40;;;;;;;;;;5081345;28;20545;-77
2021/12/28 13:26:57;;;;;;;39.05;4.32;;;;;;;;;;5073435;28;20514;-77
2021/12/28 13:29:27;;;;;;;29.08;4.07;;;;;;;;;;5073710;28;20505;-77
2021/12/28 13:32:09;;;;;;;29.48;3.75;;;;;;;;;;5076453;28;20136;-77
2021/12/28 13:34:54;;;;;;;21.58;3.53;;;;;;;;;;5079150;28;20100;-76
2021/12/28 13:37:42;;;;;;;26.35;4.00;;;;;;;;;;5075100;28;20581;-77
2021/12/28 13:40:16;;;;;;;29.45;3.58;;;;;;;;;;5077650;28;20055;-77
2021/12/28 13:42:45;;;;;;;27.85;4.40;;;;;;;;;;5078273;28;20056;-77
2021/12/28 13:45:11;;;;;;;26.27;3.15;;;;;;;;;;5071415;28;20223;-77
2021/12/28 13:47:39;;;;;;;30.02;4.45;;;;;;;;;;5065205;28;20108;-77
2021/12/28 13:50:09;;;;;;;24.42;3.15;;;;;;;;;;5069389;28;20158;-76
2021/12/28 13:52:39;;;;;;;31.95;4.10;;;;;;;;;;5066511;28;20107;-77
2021/12/28 13:55:06;;;;;;;21.25;3.42;;;;;;;;;;5082251;28;20048;-77
2021/12/28 13:57:32;;;;;;;31.60;4.88;;;;;;;;;;5081156;28;20611;-76
2021/12/28 13:59:58;;;;;;;30.13;4.70;;;;;;;;;;5082073;28;20076;-78
2021/12/28 14:02:25;;;;;;;28.83;4.63;;;;;;;;;;5075572;28;20061;-77
2021/12/28 14:04:52;;;;;;;28.98;4.38;;;;;;;;;;5078584;28;20053;-77
2021/12/28 14:07:18;;;;;;;27.98;3.30;;;;;;;;;;5070919;28;20585;-77
2021/12/28 14:09:46;;;;;;;30.90;3.63;;;;;;;;;;5080081;28;20102;-77
2021/12/28 14:12:12;;;;;;;24.05;4.25;;;;;;;;;;5078343;28;20053;-79
2021/12/28 14:14:45;;;;;;;24.10;3.47;;;;;;;;;;5077061;28;20965;-77
2021/12/28 14:17:14;;;;;;;31.98;3.65;;;;;;;;;;5071161;28;20064;-78
2021/12/28 14:19:42;;;;;;;25.55;4.55;;;;;;;;;;5075348;28;20515;-76
2021/12/28 14:22:09;;;;;;;30.67;5.60;;;;;;;;;;5080046;28;20063;-77
2021/12/28 14:24:36;;;;;;;28.15;4.90;;;;;;;;;;5077406;28;20052;-77
2021/12/28 14:27:03;;;;;;;27.33;4.97;;;;;;;;;;5082310;28;20320;-77
2021/12/28 14:29:32;;;;;;;29.25;4.13;;;;;;;;;;5074682;28;20056;-77
2021/12/28 14:32:00;;;;;;;26.17;4.57;;;;;;;;;;5076284;28;20515;-77
2021/12/28 14:34:32;;;;;;;24.90;3.85;;;;;;;;;;5075111;28;20565;-77
2021/12/28 14:37:08;;;;;;;29.10;4.40;;;;;;;;;;5073644;28;20067;-77
2021/12/28 14:39:39;;;;;;;36.78;6.60;;;;;;;;;;5076753;28;20049;-77